Time;durP1;ratioP1;P1;durP2;ratioP2;P2;SDS_P1;SDS_P2;PMS_P1;PMS_P2;Temp;Humidity;BMP_temperature;BMP_pressure;BME280_temperature;BME280_humidity;BME280_pressure;Samples;Min_cycle;Max_cycle;Signal;HPM_P1;HPM_P2
2022/03/23 00:00:04;;;;;;;25.90;14.43;;;;;;;6.26;59.99;103145.44;2071354;28;45945;-72
2022/03/23 00:01:12;;;;;;;21.95;14.95;;;;;;;6.21;59.48;103141.72;2072341;28;20149;-74
2022/03/23 00:02:14;;;;;;;22.90;15.30;;;;;;;6.18;59.40;103147.88;2062876;28;39182;-72
2022/03/23 00:03:15;;;;;;;26.55;15.15;;;;;;;6.16;59.57;103144.25;2061941;28;44847;-74
2022/03/23 00:04:17;;;;;;;21.77;13.75;;;;;;;6.13;59.61;103143.25;2071582;28;45806;-72
2022/03/23 00:05:19;;;;;;;25.45;15.48;;;;;;;6.05;60.61;103141.28;2071258;28;46144;-72
2022/03/23 00:06:21;;;;;;;25.55;15.18;;;;;;;6.00;60.94;103140.22;2071331;28;37393;-72
2022/03/23 00:07:22;;;;;;;22.60;14.75;;;;;;;5.97;61.00;103137.44;2071346;28;46605;-72
2022/03/23 00:08:24;;;;;;;23.65;14.38;;;;;;;5.92;60.93;103139.94;2071329;28;27681;-72
2022/03/23 00:09:29;;;;;;;23.67;15.43;;;;;;;5.87;61.20;103140.66;2071112;28;44639;-72
2022/03/23 00:10:50;;;;;;;21.42;14.95;;;;;;;5.81;61.37;103143.09;2071851;28;20181;-72
2022/03/23 00:11:52;;;;;;;20.30;14.65;;;;;;;5.80;61.29;103143.97;2071875;28;45338;-72
2022/03/23 00:12:57;;;;;;;25.80;15.45;;;;;;;5.78;61.18;103143.00;2071208;28;44241;-71
2022/03/23 00:14:00;;;;;;;23.27;15.05;;;;;;;5.75;61.64;103149.13;2071376;28;43928;-72
2022/03/23 00:15:03;;;;;;;25.40;15.57;;;;;;;5.73;61.46;103145.53;2071729;28;32720;-72
2022/03/23 00:16:05;;;;;;;25.00;15.60;;;;;;;5.71;61.18;103140.16;2062719;28;45434;-72
2022/03/23 00:17:07;;;;;;;26.75;16.45;;;;;;;5.69;61.54;103141.88;2063721;28;20828;-71
2022/03/23 00:18:09;;;;;;;26.05;16.50;;;;;;;5.69;61.60;103141.88;2062202;28;44469;-70
2022/03/23 00:19:11;;;;;;;25.88;15.93;;;;;;;5.68;61.63;103139.16;2054625;28;46017;-70
2022/03/23 00:20:13;;;;;;;21.77;15.00;;;;;;;5.65;61.90;103134.66;2055106;28;28189;-70
2022/03/23 00:21:14;;;;;;;27.33;17.05;;;;;;;5.64;62.02;103140.81;2054739;28;45133;-70
2022/03/23 00:22:17;;;;;;;26.00;15.48;;;;;;;5.62;62.61;103133.66;2062831;28;40848;-70
2022/03/23 00:23:23;;;;;;;29.38;17.30;;;;;;;5.60;61.93;103146.88;2063131;28;45441;-71
2022/03/23 00:24:25;;;;;;;24.45;15.80;;;;;;;5.58;62.18;103140.63;2062938;28;43475;-71
2022/03/23 00:25:29;;;;;;;25.13;16.90;;;;;;;5.57;63.09;103145.88;2055415;28;20915;-70
2022/03/23 00:26:31;;;;;;;28.27;16.67;;;;;;;5.54;62.76;103144.94;2054291;28;45962;-72
2022/03/23 00:27:33;;;;;;;25.20;15.40;;;;;;;5.53;62.35;103144.88;2055026;28;20046;-73
2022/03/23 00:28:37;;;;;;;24.05;16.48;;;;;;;5.52;63.40;103143.94;2055369;28;20126;-72
2022/03/23 00:29:41;;;;;;;28.73;16.80;;;;;;;5.49;63.43;103143.88;2062834;28;44810;-73
2022/03/23 00:30:43;;;;;;;25.10;17.17;;;;;;;5.48;63.18;103143.81;2063037;28;45258;-72
2022/03/23 00:32:05;;;;;;;27.90;16.38;;;;;;;5.43;63.81;103142.75;2055239;28;20051;-72
2022/03/23 00:33:07;;;;;;;26.15;17.08;;;;;;;5.40;64.35;103146.22;2054533;28;44994;-72
2022/03/23 00:34:10;;;;;;;26.60;16.73;;;;;;;5.37;63.63;103137.25;2063991;28;20220;-73
2022/03/23 00:35:12;;;;;;;27.45;16.58;;;;;;;5.33;64.11;103137.13;2054924;28;20046;-73
2022/03/23 00:36:15;;;;;;;28.40;17.00;;;;;;;5.31;64.38;103136.19;2054583;28;35190;-72
2022/03/23 00:37:17;;;;;;;25.73;16.67;;;;;;;5.27;64.65;103134.25;2063149;28;44437;-72
2022/03/23 00:38:19;;;;;;;28.13;17.00;;;;;;;5.26;65.03;103135.09;2054104;28;45857;-73
2022/03/23 00:39:22;;;;;;;25.75;17.65;;;;;;;5.23;64.41;103139.41;2062058;28;43879;-72
2022/03/23 00:40:29;;;;;;;26.95;18.00;;;;;;;5.20;65.43;103140.19;2070780;28;20236;-72
2022/03/23 00:41:30;;;;;;;28.80;18.05;;;;;;;5.18;65.12;103141.91;2054174;28;43150;-72
2022/03/23 00:42:33;;;;;;;26.92;17.85;;;;;;;5.17;66.16;103134.78;2063416;28;20051;-72
2022/03/23 00:43:35;;;;;;;28.77;17.55;;;;;;;5.16;65.04;103138.28;2070364;28;44874;-72
2022/03/23 00:44:37;;;;;;;25.15;16.77;;;;;;;5.15;65.78;103141.78;2055148;28;20167;-72
2022/03/23 00:45:40;;;;;;;27.95;17.92;;;;;;;5.12;65.73;103137.28;2046165;28;46141;-72
2022/03/23 00:46:42;;;;;;;28.00;18.23;;;;;;;5.09;66.65;103136.25;2046398;28;44887;-71
2022/03/23 00:47:45;;;;;;;29.55;19.75;;;;;;;5.07;66.15;103136.22;2054325;28;44185;-72
2022/03/23 00:48:47;;;;;;;26.98;17.60;;;;;;;5.04;66.30;103132.53;2054550;28;27533;-73
2022/03/23 00:49:49;;;;;;;28.17;18.67;;;;;;;5.03;66.82;103139.63;2053987;28;45390;-72
2022/03/23 00:50:50;;;;;;;28.15;18.92;;;;;;;5.01;66.20;103137.72;2053621;28;45593;-71
2022/03/23 00:51:53;;;;;;;35.10;17.92;;;;;;;4.98;66.32;103139.44;2045833;28;43180;-72
2022/03/23 00:52:54;;;;;;;24.88;17.80;;;;;;;4.96;66.94;103141.13;2062076;28;45405;-72
2022/03/23 00:53:56;;;;;;;31.70;18.10;;;;;;;4.96;66.75;103142.91;2070167;28;44075;-72
2022/03/23 00:54:58;;;;;;;27.92;17.25;;;;;;;4.96;66.95;103137.59;2071189;28;44107;-72
2022/03/23 00:56:00;;;;;;;30.00;17.45;;;;;;;4.92;67.06;103141.00;2071056;28;45015;-72
2022/03/23 00:57:06;;;;;;;23.98;15.98;;;;;;;4.89;66.88;103133.81;2055477;28;20174;-72
2022/03/23 00:58:09;;;;;;;29.30;19.20;;;;;;;4.84;67.27;103135.38;2046979;28;43563;-72
2022/03/23 00:59:13;;;;;;;29.80;18.60;;;;;;;4.81;67.23;103140.59;2055349;28;21959;-72
2022/03/23 01:00:20;;;;;;;23.90;16.35;;;;;;;4.81;68.08;103139.69;2070995;28;43540;-72
2022/03/23 01:01:22;;;;;;;30.92;18.45;;;;;;;4.77;68.27;103138.66;2062227;28;44304;-72
2022/03/23 01:02:26;;;;;;;28.30;18.33;;;;;;;4.75;68.10;103135.94;2062778;28;46169;-72
2022/03/23 01:03:28;;;;;;;27.98;18.10;;;;;;;4.72;67.79;103137.59;2070817;28;45285;-72
2022/03/23 01:04:33;;;;;;;27.08;18.38;;;;;;;4.69;67.83;103146.34;2071058;28;39602;-72
2022/03/23 01:05:34;;;;;;;25.27;16.02;;;;;;;4.69;68.61;103140.16;2071388;28;32397;-72
2022/03/23 01:06:36;;;;;;;29.60;18.25;;;;;;;4.65;68.06;103132.91;2070753;28;44253;-72
2022/03/23 01:07:42;;;;;;;29.75;18.70;;;;;;;4.62;68.57;103143.41;2071899;28;20038;-72
2022/03/23 01:08:44;;;;;;;27.70;18.00;;;;;;;4.61;68.94;103136.28;2061886;28;45519;-72
2022/03/23 01:09:46;;;;;;;25.88;17.70;;;;;;;4.58;68.67;103145.94;2062046;28;45141;-71
2022/03/23 01:10:49;;;;;;;27.85;19.33;;;;;;;4.55;69.24;103135.22;2062683;28;21085;-72
2022/03/23 01:11:53;;;;;;;24.63;17.00;;;;;;;4.55;69.38;103137.88;2054749;28;20117;-71
2022/03/23 01:12:55;;;;;;;27.27;17.92;;;;;;;4.52;69.03;103142.16;2062780;28;31005;-71
2022/03/23 01:13:57;;;;;;;28.13;18.42;;;;;;;4.48;69.27;103132.28;2053852;28;43003;-71
2022/03/23 01:14:58;;;;;;;27.58;17.40;;;;;;;4.47;69.39;103133.13;2061941;28;47010;-72
2022/03/23 01:16:00;;;;;;;31.58;19.98;;;;;;;4.42;69.79;103140.91;2062414;28;24838;-72
2022/03/23 01:17:03;;;;;;;29.30;18.30;;;;;;;4.40;69.88;103142.63;2055192;28;20179;-72
2022/03/23 01:18:05;;;;;;;30.85;19.70;;;;;;;4.37;69.65;103134.53;2053856;28;43660;-72
2022/03/23 01:19:07;;;;;;;27.80;18.23;;;;;;;4.34;70.02;103137.06;2064038;28;20934;-72
2022/03/23 01:20:12;;;;;;;28.80;18.67;;;;;;;4.31;70.27;103134.31;2062671;28;20047;-72
2022/03/23 01:21:14;;;;;;;29.20;19.08;;;;;;;4.29;70.37;103138.63;2054180;28;47200;-72
2022/03/23 01:22:19;;;;;;;28.92;19.05;;;;;;;4.28;70.50;103143.03;2062883;28;20101;-72
2022/03/23 01:23:23;;;;;;;28.33;19.27;;;;;;;4.25;70.51;103137.59;2061989;28;46120;-72
2022/03/23 01:24:24;;;;;;;26.67;17.10;;;;;;;4.24;70.84;103143.78;2062629;28;43590;-72
2022/03/23 01:25:27;;;;;;;28.30;17.77;;;;;;;4.23;70.73;103138.41;2072084;28;20616;-72
2022/03/23 01:26:28;;;;;;;29.17;19.25;;;;;;;4.20;71.08;103139.19;2070985;28;45671;-72
2022/03/23 01:27:31;;;;;;;29.25;19.02;;;;;;;4.18;71.12;103139.13;2061743;28;45160;-72
2022/03/23 01:28:33;;;;;;;29.23;17.58;;;;;;;4.17;71.28;103145.28;2062099;28;46235;-72
2022/03/23 01:29:35;;;;;;;28.17;19.08;;;;;;;4.18;71.81;103144.44;2070132;28;45037;-71
2022/03/23 01:30:37;;;;;;;28.90;19.10;;;;;;;4.17;71.89;103139.97;2061931;28;44073;-72
2022/03/23 01:31:39;;;;;;;30.13;18.77;;;;;;;4.14;71.90;103134.53;2062999;28;20073;-72
2022/03/23 01:32:43;;;;;;;25.20;16.75;;;;;;;4.14;72.01;103142.50;2054744;28;20078;-72
2022/03/23 01:33:45;;;;;;;23.50;17.13;;;;;;;4.10;71.78;103137.91;2055027;28;20040;-71
2022/03/23 01:34:47;;;;;;;27.45;19.00;;;;;;;4.07;71.57;103139.53;2053770;28;45305;-72
2022/03/23 01:35:49;;;;;;;30.55;19.02;;;;;;;4.01;71.68;103137.56;2061732;28;45546;-72
2022/03/23 01:36:51;;;;;;;28.77;17.83;;;;;;;3.98;72.01;103142.72;2070971;28;20124;-72
2022/03/23 01:37:53;;;;;;;30.88;19.35;;;;;;;3.94;71.79;103143.47;2062308;28;34834;-72
2022/03/23 01:38:57;;;;;;;28.58;19.20;;;;;;;3.91;72.49;103136.31;2054214;28;20043;-72
2022/03/23 01:39:59;;;;;;;28.90;18.02;;;;;;;3.88;72.71;103133.53;2054252;28;42908;-72
2022/03/23 01:41:01;;;;;;;25.80;18.10;;;;;;;3.87;72.91;103138.75;2054639;28;20850;-72
2022/03/23 01:42:03;;;;;;;32.40;18.88;;;;;;;3.83;73.09;103133.31;2061878;28;46585;-72
2022/03/23 01:43:07;;;;;;;29.45;19.13;;;;;;;3.81;73.45;103140.31;2071937;28;20031;-71
2022/03/23 01:44:21;;;;;;;28.10;20.20;;;;;;;3.77;73.17;103137.50;2062556;28;23735;-72
2022/03/23 01:45:23;;;;;;;27.27;17.50;;;;;;;3.75;73.34;103134.78;2064944;28;20133;-72
2022/03/23 01:46:26;;;;;;;28.85;18.58;;;;;;;3.74;73.42;103127.66;2062930;28;20166;-72
2022/03/23 01:47:30;;;;;;;28.10;17.75;;;;;;;3.70;73.19;103125.75;2063339;28;20102;-72
2022/03/23 01:48:32;;;;;;;31.73;19.13;;;;;;;3.69;73.36;103130.97;2070599;28;20097;-72
2022/03/23 01:49:39;;;;;;;25.50;18.02;;;;;;;3.67;73.50;103125.59;2071333;28;20910;-72
2022/03/23 01:50:41;;;;;;;29.05;18.52;;;;;;;3.67;74.18;103133.56;2062128;28;31459;-72
2022/03/23 01:51:45;;;;;;;28.00;19.27;;;;;;;3.64;74.11;103125.47;2063149;28;20215;-72
2022/03/23 01:52:48;;;;;;;27.38;18.20;;;;;;;3.63;74.03;103131.63;2061595;28;44787;-72
2022/03/23 01:53:49;;;;;;;28.63;17.75;;;;;;;3.61;73.43;103128.00;2062618;28;31017;-72
2022/03/23 01:54:55;;;;;;;28.38;18.63;;;;;;;3.58;74.10;103123.47;2063005;28;20197;-72
2022/03/23 01:55:58;;;;;;;30.35;18.30;;;;;;;3.59;74.10;103127.06;2062494;28;45130;-70
2022/03/23 01:57:01;;;;;;;32.75;19.55;;;;;;;3.56;74.60;103122.50;2070140;28;43751;-72
2022/03/23 01:58:03;;;;;;;33.03;19.73;;;;;;;3.57;74.80;103139.28;2062851;28;20109;-72
2022/03/23 01:59:10;;;;;;;29.65;17.60;;;;;;;3.56;74.65;103124.28;2063726;28;20042;-72
2022/03/23 02:00:15;;;;;;;28.17;19.25;;;;;;;3.53;74.39;103122.38;2062219;28;26862;-72
2022/03/23 02:01:17;;;;;;;27.58;18.83;;;;;;;3.53;74.89;103121.47;2062676;28;43308;-72
2022/03/23 02:02:19;;;;;;;28.80;19.15;;;;;;;3.52;75.10;103127.63;2054754;28;20070;-72
2022/03/23 02:03:34;;;;;;;27.45;18.20;;;;;;;3.50;74.80;103130.22;2050330;28;20864;-72
2022/03/23 02:04:38;;;;;;;28.27;18.15;;;;;;;3.50;75.17;103127.56;2054754;28;20047;-72
2022/03/23 02:05:39;;;;;;;31.20;19.70;;;;;;;3.47;75.31;103132.72;2063143;28;20035;-72
2022/03/23 02:06:41;;;;;;;28.48;18.58;;;;;;;3.44;75.21;103120.25;2070602;28;45221;-72
2022/03/23 02:07:45;;;;;;;24.17;16.95;;;;;;;3.43;75.19;103120.22;2062463;28;20136;-72
2022/03/23 02:08:48;;;;;;;28.90;18.92;;;;;;;3.39;75.24;103124.47;2054860;28;20103;-72
2022/03/23 02:09:50;;;;;;;26.40;18.33;;;;;;;3.38;75.14;103121.75;2054252;28;36353;-72
2022/03/23 02:10:59;;;;;;;32.63;19.20;;;;;;;3.35;75.51;103116.31;2047506;28;20834;-72
2022/03/23 02:12:08;;;;;;;27.60;18.25;;;;;;;3.35;75.43;103121.63;2056860;28;20135;-72
2022/03/23 02:13:09;;;;;;;25.30;17.75;;;;;;;3.32;75.59;103117.13;2070160;28;42334;-72
2022/03/23 02:14:13;;;;;;;26.77;16.52;;;;;;;3.31;76.20;103119.69;2062563;28;20050;-72
2022/03/23 02:15:18;;;;;;;32.22;18.90;;;;;;;3.29;75.60;103114.31;2063065;28;20165;-70
2022/03/23 02:16:20;;;;;;;31.55;18.63;;;;;;;3.27;76.27;103116.00;2062259;28;30749;-71
2022/03/23 02:17:22;;;;;;;27.40;18.13;;;;;;;3.25;76.22;103121.25;2054370;28;27853;-72
2022/03/23 02:18:25;;;;;;;29.75;18.55;;;;;;;3.25;76.62;103112.41;2062095;28;20050;-72
2022/03/23 02:19:28;;;;;;;27.83;17.35;;;;;;;3.24;76.26;103118.53;2054921;28;20127;-72
2022/03/23 02:20:30;;;;;;;27.60;18.00;;;;;;;3.24;76.75;103113.22;2062550;28;31190;-70
2022/03/23 02:21:34;;;;;;;28.05;17.88;;;;;;;3.19;76.18;103118.31;2062558;28;20873;-72
2022/03/23 02:22:36;;;;;;;25.13;17.73;;;;;;;3.19;76.97;103113.00;2054374;28;21859;-72
2022/03/23 02:23:38;;;;;;;29.60;18.90;;;;;;;3.16;76.23;103115.56;2055089;28;20074;-71
2022/03/23 02:24:40;;;;;;;28.55;19.05;;;;;;;3.14;76.12;103121.59;2062198;28;37025;-72
2022/03/23 02:25:47;;;;;;;26.15;17.58;;;;;;;3.12;76.84;103118.00;2061555;28;46382;-72
2022/03/23 02:26:48;;;;;;;28.08;19.17;;;;;;;3.10;76.65;103114.38;2054726;28;44406;-72
2022/03/23 02:27:51;;;;;;;27.20;17.45;;;;;;;3.06;76.62;103119.53;2061807;28;34655;-72
2022/03/23 02:28:53;;;;;;;25.08;16.42;;;;;;;3.05;76.98;103116.81;2070728;28;44281;-72
2022/03/23 02:29:57;;;;;;;21.73;16.08;;;;;;;3.03;76.80;103114.13;2070481;28;44100;-72
2022/03/23 02:31:01;;;;;;;29.63;17.60;;;;;;;3.04;77.45;103123.84;2071227;28;20053;-72
2022/03/23 02:32:05;;;;;;;26.40;18.10;;;;;;;3.04;77.00;103115.03;2071013;28;43660;-71
2022/03/23 02:33:09;;;;;;;31.10;19.20;;;;;;;3.05;76.93;103114.16;2072733;28;20911;-71
2022/03/23 02:34:12;;;;;;;28.40;18.27;;;;;;;3.04;77.14;103115.03;2071647;28;45915;-72
2022/03/23 02:35:15;;;;;;;31.40;18.83;;;;;;;3.04;77.19;103117.66;2063150;28;44136;-72
2022/03/23 02:36:19;;;;;;;30.98;19.20;;;;;;;3.04;77.33;103115.91;2063277;28;45401;-72
2022/03/23 02:37:20;;;;;;;28.42;17.88;;;;;;;3.03;76.82;103114.13;2071133;28;44387;-72
2022/03/23 02:38:22;;;;;;;27.80;19.27;;;;;;;3.01;77.28;103115.78;2072972;28;20120;-72
2022/03/23 02:39:25;;;;;;;29.38;19.05;;;;;;;3.00;76.90;103116.63;2072824;28;20114;-71
2022/03/23 02:40:30;;;;;;;32.53;19.67;;;;;;;2.99;77.13;103112.16;2073287;28;20026;-72
2022/03/23 02:41:34;;;;;;;28.77;19.45;;;;;;;2.98;77.31;103112.09;2063560;28;24149;-72
2022/03/23 02:42:38;;;;;;;27.80;17.50;;;;;;;2.96;76.98;103106.75;2063366;28;44518;-71
2022/03/23 02:43:39;;;;;;;30.63;20.00;;;;;;;2.95;76.81;103110.22;2063211;28;45435;-71
2022/03/23 02:44:41;;;;;;;30.52;19.60;;;;;;;2.94;77.69;103103.13;2064632;28;20441;-71
2022/03/23 02:45:43;;;;;;;28.80;18.60;;;;;;;2.92;76.94;103112.72;2063653;28;36023;-72
2022/03/23 02:46:45;;;;;;;27.42;19.00;;;;;;;2.92;77.06;103107.44;2063151;28;46107;-72
2022/03/23 02:47:47;;;;;;;30.05;19.65;;;;;;;2.92;77.26;103109.19;2072280;28;20136;-71
2022/03/23 02:48:51;;;;;;;27.05;19.00;;;;;;;2.88;77.50;103102.88;2071701;28;43030;-72
2022/03/23 02:49:53;;;;;;;30.85;19.52;;;;;;;2.86;77.09;103099.25;2071623;28;45434;-72
2022/03/23 02:50:57;;;;;;;30.35;18.80;;;;;;;2.85;77.54;103108.94;2064030;28;20149;-72
2022/03/23 02:51:59;;;;;;;27.25;18.80;;;;;;;2.83;77.08;103107.94;2063473;28;42928;-72
2022/03/23 03:02:22;;;;;;;24.45;15.82;;;;;;;2.56;78.41;103110.28;2071573;28;45537;-72
2022/03/23 03:03:24;;;;;;;31.85;20.10;;;;;;;2.48;78.04;103109.03;2071596;28;45319;-72
2022/03/23 03:04:26;;;;;;;34.63;19.88;;;;;;;2.45;78.52;103107.13;2071256;28;43651;-71
2022/03/23 03:05:27;;;;;;;28.48;19.08;;;;;;;2.45;78.25;103112.44;2071631;28;44309;-70
2022/03/23 03:06:29;;;;;;;29.92;18.33;;;;;;;2.45;78.40;103108.88;2071716;28;44352;-71
2022/03/23 03:08:44;;;;;;;32.53;19.40;;;;;;;2.44;78.64;103110.63;2062762;28;45126;-72
2022/03/23 03:08:55;;;;;;;31.02;18.83;;;;;;;2.45;79.18;103108.88;2066427;28;46609;-72
2022/03/23 03:09:56;;;;;;;30.38;17.92;;;;;;;2.46;79.32;103114.25;2062671;28;43337;-72
2022/03/23 03:10:58;;;;;;;31.45;18.75;;;;;;;2.49;78.57;103116.13;2064499;28;29879;-73
2022/03/23 03:12:01;;;;;;;26.38;18.65;;;;;;;2.50;78.83;103102.06;2062925;28;45708;-72
2022/03/23 03:13:03;;;;;;;25.63;17.23;;;;;;;2.51;79.00;103111.78;2063759;28;42899;-71
2022/03/23 03:14:05;;;;;;;33.50;19.83;;;;;;;2.48;78.31;103109.94;2063229;28;46229;-72
2022/03/23 03:15:07;;;;;;;29.42;18.83;;;;;;;2.50;78.64;103112.66;2063492;28;42171;-71
2022/03/23 03:16:08;;;;;;;30.05;19.17;;;;;;;2.48;79.00;103114.31;2071393;28;45462;-72
2022/03/23 03:17:10;;;;;;;27.67;19.40;;;;;;;2.46;78.56;103116.00;2071815;28;38779;-72
2022/03/23 03:18:12;;;;;;;27.15;18.48;;;;;;;2.45;78.40;103112.44;2071248;28;43801;-72
2022/03/23 03:19:14;;;;;;;28.58;17.60;;;;;;;2.45;78.55;103114.19;2071415;28;45582;-72
2022/03/23 03:20:17;;;;;;;30.88;19.70;;;;;;;2.43;79.26;103114.09;2072039;28;44382;-72
2022/03/23 03:21:18;;;;;;;27.17;19.02;;;;;;;2.43;79.80;103116.75;2071595;28;42898;-72
2022/03/23 03:22:21;;;;;;;30.85;19.60;;;;;;;2.40;79.76;103113.94;2071309;28;46755;-72
2022/03/23 03:23:23;;;;;;;29.33;18.77;;;;;;;2.41;79.34;103117.53;2072087;28;36667;-72
2022/03/23 03:24:27;;;;;;;33.42;19.92;;;;;;;2.40;79.46;103118.34;2062605;28;43094;-72
2022/03/23 03:25:29;;;;;;;30.23;19.95;;;;;;;2.39;80.21;103114.81;2063800;28;44427;-72
2022/03/23 03:26:31;;;;;;;30.67;19.77;;;;;;;2.41;78.98;103120.16;2072512;28;20039;-72
2022/03/23 03:27:37;;;;;;;29.80;19.27;;;;;;;2.41;79.28;103109.59;2071851;28;44217;-72
2022/03/23 03:28:41;;;;;;;31.38;18.67;;;;;;;2.42;79.86;103116.66;2063153;28;43685;-73
2022/03/23 03:29:43;;;;;;;30.13;19.15;;;;;;;2.39;79.41;103117.44;2063813;28;44349;-72
2022/03/23 03:30:47;;;;;;;29.27;18.80;;;;;;;2.40;79.33;103115.69;2072123;28;20057;-72
2022/03/23 03:31:49;;;;;;;27.27;18.33;;;;;;;2.41;79.58;103125.44;2062587;28;45713;-71
2022/03/23 03:32:51;;;;;;;30.17;19.17;;;;;;;2.39;79.57;103121.84;2062905;28;46375;-72
2022/03/23 03:33:53;;;;;;;27.63;18.92;;;;;;;2.38;78.79;103120.91;2072489;28;20042;-72
2022/03/23 03:34:54;;;;;;;32.63;19.10;;;;;;;2.40;78.34;103118.34;2071122;28;43411;-72
2022/03/23 03:35:57;;;;;;;31.30;19.23;;;;;;;2.41;78.85;103115.78;2072055;28;20074;-72
2022/03/23 03:36:58;;;;;;;28.63;17.80;;;;;;;2.42;77.62;103117.59;2072065;28;43913;-72
2022/03/23 03:38:00;;;;;;;27.98;18.40;;;;;;;2.42;77.05;103117.59;2071480;28;45711;-72
2022/03/23 03:39:04;;;;;;;29.02;18.60;;;;;;;2.45;77.81;103119.47;2071541;28;46060;-72
2022/03/23 03:40:09;;;;;;;29.52;19.40;;;;;;;2.44;77.27;103123.84;2062807;28;45258;-72
2022/03/23 03:41:11;;;;;;;28.10;17.55;;;;;;;2.43;77.37;103123.78;2063462;28;45449;-72
2022/03/23 03:42:13;;;;;;;29.60;19.20;;;;;;;2.43;76.73;103124.69;2071529;28;44131;-72
2022/03/23 03:43:16;;;;;;;30.05;19.27;;;;;;;2.42;76.48;103125.53;2071314;28;45502;-72
2022/03/23 03:44:17;;;;;;;28.10;18.17;;;;;;;2.43;76.43;103129.06;2070678;28;44797;-71
2022/03/23 03:45:19;;;;;;;25.00;16.35;;;;;;;2.45;76.38;103130.94;2071407;28;45472;-72
2022/03/23 03:46:21;;;;;;;28.42;19.20;;;;;;;2.44;76.35;103123.84;2071328;28;39849;-72
2022/03/23 03:47:24;;;;;;;24.58;16.90;;;;;;;2.43;76.46;103129.97;2071435;28;44984;-72
2022/03/23 03:48:26;;;;;;;26.90;18.60;;;;;;;2.42;75.88;103133.47;2071101;28;44275;-72
2022/03/23 03:49:27;;;;;;;23.95;17.48;;;;;;;2.46;76.00;103122.19;2063166;28;30470;-72
2022/03/23 03:50:31;;;;;;;26.13;17.23;;;;;;;2.50;75.75;103135.56;2062907;28;42762;-72
2022/03/23 03:51:34;;;;;;;26.95;18.05;;;;;;;2.50;75.40;103124.97;2071091;28;33449;-71
2022/03/23 03:52:38;;;;;;;27.60;17.40;;;;;;;2.51;76.41;103132.06;2071290;28;44438;-71
2022/03/23 03:53:40;;;;;;;28.23;18.90;;;;;;;2.52;76.70;103126.84;2071589;28;44556;-72
2022/03/23 03:54:41;;;;;;;28.60;18.05;;;;;;;2.51;76.20;103127.66;2071031;28;45976;-72
2022/03/23 03:55:43;;;;;;;26.77;17.38;;;;;;;2.51;76.23;103129.41;2071335;28;42768;-71
2022/03/23 03:56:45;;;;;;;25.85;17.70;;;;;;;2.50;75.73;103128.50;2071096;28;45126;-71
2022/03/23 03:57:47;;;;;;;25.50;16.70;;;;;;;2.51;75.19;103130.31;2071917;28;20184;-71
2022/03/23 03:58:49;;;;;;;23.98;16.02;;;;;;;2.52;74.50;103124.19;2072198;28;44250;-72
2022/03/23 03:59:51;;;;;;;27.65;19.00;;;;;;;2.55;75.22;103123.41;2071556;28;46160;-72
2022/03/23 04:00:52;;;;;;;27.23;16.70;;;;;;;2.59;74.28;103128.94;2071247;28;45055;-72
2022/03/23 04:01:55;;;;;;;24.05;15.45;;;;;;;2.63;73.46;103127.31;2071342;28;45769;-71
2022/03/23 04:02:57;;;;;;;26.13;16.98;;;;;;;2.70;73.22;103129.41;2062452;28;44513;-72
2022/03/23 04:03:59;;;;;;;28.10;16.20;;;;;;;2.74;72.42;103118.13;2062351;28;45049;-72
2022/03/23 04:05:00;;;;;;;25.23;15.90;;;;;;;2.79;72.03;103128.91;2071517;28;45145;-72
2022/03/23 04:06:07;;;;;;;24.42;15.95;;;;;;;2.80;72.28;103125.41;2071646;28;40659;-72
2022/03/23 04:07:09;;;;;;;25.23;15.57;;;;;;;2.84;72.27;103127.38;2070966;28;45615;-72
2022/03/23 04:08:10;;;;;;;26.48;17.02;;;;;;;2.87;71.16;103127.50;2071165;28;44470;-72
2022/03/23 04:09:12;;;;;;;23.83;15.82;;;;;;;2.89;71.47;103133.78;2070966;28;44197;-71
2022/03/23 04:10:13;;;;;;;22.83;16.17;;;;;;;2.89;71.79;103130.22;2071698;28;44821;-72
2022/03/23 04:11:15;;;;;;;21.63;14.98;;;;;;;2.90;70.87;103134.69;2070967;28;44451;-72
2022/03/23 04:12:17;;;;;;;26.13;17.02;;;;;;;2.89;70.74;103132.88;2071302;28;44088;-72
2022/03/23 04:13:19;;;;;;;23.98;15.38;;;;;;;2.91;71.33;103126.81;2071467;28;44271;-72
2022/03/23 04:14:20;;;;;;;25.77;17.92;;;;;;;2.90;70.25;103138.22;2071320;28;41132;-72
2022/03/23 04:15:25;;;;;;;23.35;16.40;;;;;;;2.88;71.14;103137.25;2071420;28;43855;-72
2022/03/23 04:16:27;;;;;;;25.67;15.90;;;;;;;2.88;70.93;103133.72;2071206;28;43984;-72
2022/03/23 04:17:28;;;;;;;25.63;17.25;;;;;;;2.87;70.50;103135.44;2071444;28;45458;-72
2022/03/23 04:18:30;;;;;;;22.98;15.95;;;;;;;2.85;70.88;103126.53;2071064;28;45652;-72
2022/03/23 04:19:32;;;;;;;24.88;16.85;;;;;;;2.84;70.39;103137.97;2062369;28;33964;-72
2022/03/23 04:20:37;;;;;;;25.63;17.40;;;;;;;2.81;70.33;103135.19;2063772;28;20039;-72
2022/03/23 04:21:39;;;;;;;24.90;16.02;;;;;;;2.78;70.76;103133.31;2071437;28;44790;-72
2022/03/23 04:22:40;;;;;;;23.42;15.13;;;;;;;2.77;70.67;103138.53;2071139;28;44321;-72
2022/03/23 04:23:42;;;;;;;20.90;15.23;;;;;;;2.77;70.58;103135.88;2062176;28;44771;-70
2022/03/23 04:24:44;;;;;;;23.33;16.92;;;;;;;2.74;70.83;103141.94;2062930;28;44086;-71
2022/03/23 04:25:45;;;;;;;25.02;16.23;;;;;;;2.70;70.37;103133.81;2071135;28;45670;-71
2022/03/23 04:26:47;;;;;;;23.35;15.68;;;;;;;2.67;70.52;103140.78;2071163;28;42551;-72
2022/03/23 04:27:55;;;;;;;25.75;17.17;;;;;;;2.66;70.18;103151.28;2062421;28;45768;-72
2022/03/23 04:28:57;;;;;;;23.90;16.27;;;;;;;2.65;70.60;103142.41;2063624;28;46704;-72
2022/03/23 04:29:58;;;;;;;24.50;16.42;;;;;;;2.64;70.43;103139.72;2071595;28;44768;-72
2022/03/23 04:31:01;;;;;;;25.90;16.02;;;;;;;2.63;70.14;103141.44;2071506;28;44065;-70
2022/03/23 04:32:03;;;;;;;26.42;17.30;;;;;;;2.61;70.58;103139.59;2062244;28;45798;-72
2022/03/23 04:33:05;;;;;;;23.27;16.02;;;;;;;2.58;70.04;103140.31;2062748;28;45328;-72
2022/03/23 04:34:07;;;;;;;28.95;16.38;;;;;;;2.55;70.36;103140.22;2071008;28;44796;-72
2022/03/23 04:35:09;;;;;;;26.60;17.35;;;;;;;2.51;70.54;103148.81;2063246;28;22515;-72
2022/03/23 04:36:11;;;;;;;24.73;16.60;;;;;;;2.50;70.86;103143.47;2062567;28;40285;-72
2022/03/23 04:37:12;;;;;;;23.08;16.20;;;;;;;2.51;70.15;103148.81;2071470;28;44290;-72
2022/03/23 04:38:14;;;;;;;21.05;15.55;;;;;;;2.62;69.87;103138.72;2071584;28;36182;-71
2022/03/23 04:39:16;;;;;;;25.48;16.08;;;;;;;2.76;69.68;103139.34;2062414;28;42372;-71
2022/03/23 04:40:18;;;;;;;23.90;15.88;;;;;;;2.86;69.28;103146.88;2061905;28;43375;-71
2022/03/23 04:41:20;;;;;;;23.23;15.13;;;;;;;2.99;68.08;103143.03;2070791;28;44289;-70
2022/03/23 04:42:22;;;;;;;26.60;16.65;;;;;;;3.02;68.40;103146.72;2071165;28;36717;-70
2022/03/23 04:43:24;;;;;;;22.80;14.90;;;;;;;3.08;67.80;103137.22;2072014;28;31385;-70
2022/03/23 04:44:25;;;;;;;23.98;15.23;;;;;;;3.18;67.07;103143.00;2062420;28;45587;-70
2022/03/23 04:45:27;;;;;;;20.15;13.98;;;;;;;3.24;66.97;103139.69;2062169;28;44958;-71
2022/03/23 04:46:29;;;;;;;24.67;14.43;;;;;;;3.28;66.74;103136.34;2070695;28;45531;-70
2022/03/23 04:47:30;;;;;;;24.10;14.80;;;;;;;3.32;66.86;103137.38;2062677;28;38182;-71
2022/03/23 04:48:33;;;;;;;23.23;13.88;;;;;;;3.34;66.73;103138.34;2063999;28;20129;-70
2022/03/23 04:49:35;;;;;;;25.42;14.10;;;;;;;3.44;65.19;103144.06;2062273;28;44287;-70
2022/03/23 04:50:37;;;;;;;19.45;14.32;;;;;;;3.48;65.28;103146.88;2062673;28;44664;-70
2022/03/23 04:51:38;;;;;;;24.02;14.40;;;;;;;3.57;64.25;103141.94;2071059;28;44137;-70
2022/03/23 04:52:43;;;;;;;26.08;15.35;;;;;;;3.65;64.01;103132.59;2061747;28;38514;-70
2022/03/23 04:53:44;;;;;;;25.83;17.15;;;;;;;3.68;64.76;103142.38;2063244;28;44668;-70
2022/03/23 04:54:46;;;;;;;22.50;15.38;;;;;;;3.70;64.36;103141.63;2072314;28;20120;-70
2022/03/23 04:55:52;;;;;;;24.00;13.70;;;;;;;3.73;63.87;103139.13;2071581;28;38070;-70
2022/03/23 04:56:54;;;;;;;22.27;14.70;;;;;;;3.75;63.88;103148.03;2071270;28;45482;-70
2022/03/23 04:57:56;;;;;;;20.95;14.55;;;;;;;3.70;63.70;103138.97;2071821;28;20109;-70